createdAt,value
2018-04-26T00:00:15.693Z,5.33
2018-04-26T00:02:41.779Z,4.43
2018-04-26T00:05:08.036Z,4.40
2018-04-26T00:07:34.888Z,4.43
2018-04-26T00:10:01.742Z,4.53
2018-04-26T00:12:28.620Z,3.73
2018-04-26T00:14:55.553Z,5.00
2018-04-26T00:17:21.690Z,4.27
2018-04-26T00:19:48.562Z,4.40
2018-04-26T00:22:14.638Z,4.90
2018-04-26T00:24:40.757Z,4.60
2018-04-26T00:27:06.869Z,5.00
2018-04-26T00:29:33.742Z,4.97
2018-04-26T00:31:59.849Z,4.50
2018-04-26T00:34:26.742Z,4.83
2018-04-26T00:36:52.869Z,4.67
2018-04-26T00:39:19.074Z,4.60
2018-04-26T00:41:45.245Z,5.17
2018-04-26T00:44:11.394Z,5.03
2018-04-26T00:46:37.557Z,4.77
2018-04-26T00:49:03.658Z,5.07
2018-04-26T00:51:43.069Z,4.73
2018-04-26T00:54:09.135Z,4.90
2018-04-26T00:56:35.938Z,5.00
2018-04-26T00:59:02.051Z,4.97
2018-04-26T01:01:28.135Z,5.47
2018-04-26T01:03:54.322Z,5.13
2018-04-26T01:06:20.439Z,4.50
2018-04-26T01:08:47.237Z,4.87
2018-04-26T01:11:13.439Z,5.37
2018-04-26T01:13:40.288Z,4.83
2018-04-26T01:16:07.110Z,5.40
2018-04-26T01:18:33.181Z,5.70
2018-04-26T01:21:00.090Z,5.90
2018-04-26T01:23:26.162Z,5.73
2018-04-26T01:25:52.331Z,5.60
2018-04-26T01:28:18.501Z,6.47
2018-04-26T01:30:45.273Z,6.63
2018-04-26T01:33:11.403Z,6.93
2018-04-26T01:35:37.495Z,5.60
2018-04-26T01:38:03.670Z,6.10
2018-04-26T01:40:30.594Z,5.80
2018-04-26T01:42:56.927Z,6.07
2018-04-26T01:45:23.099Z,6.10
2018-04-26T01:47:49.218Z,6.40
2018-04-26T01:50:15.339Z,5.67
2018-04-26T01:52:42.203Z,6.20
2018-04-26T01:55:08.274Z,6.03
2018-04-26T01:57:34.366Z,6.50
2018-04-26T02:00:00.450Z,6.10
2018-04-26T02:02:26.580Z,6.73
2018-04-26T02:04:52.705Z,6.77
2018-04-26T02:07:19.570Z,6.43
2018-04-26T02:09:45.709Z,6.40
2018-04-26T02:12:11.853Z,7.03
2018-04-26T02:14:44.850Z,7.57
2018-04-26T02:17:10.946Z,6.87
2018-04-26T02:19:37.199Z,7.67
2018-04-26T02:22:03.290Z,7.00
2018-04-26T02:24:29.396Z,7.50
2018-04-26T02:26:56.284Z,7.43
2018-04-26T02:29:22.342Z,7.50
2018-04-26T02:31:48.426Z,7.77
2018-04-26T02:34:15.274Z,8.03
2018-04-26T02:36:42.196Z,8.53
2018-04-26T02:39:08.267Z,8.20
2018-04-26T02:41:35.105Z,8.67
2018-04-26T02:44:01.178Z,8.13
2018-04-26T02:46:27.272Z,8.93
2018-04-26T02:48:53.378Z,8.90
2018-04-26T02:51:19.456Z,8.70
2018-04-26T02:53:45.617Z,8.90
2018-04-26T02:56:12.476Z,7.90
2018-04-26T02:58:38.550Z,9.13
2018-04-26T03:01:04.654Z,8.03
2018-04-26T03:03:30.813Z,8.97
2018-04-26T03:05:56.934Z,9.00
2018-04-26T03:08:23.089Z,7.13
2018-04-26T03:10:49.140Z,8.17
2018-04-26T03:13:15.353Z,8.20
2018-04-26T03:15:41.420Z,7.40
2018-04-26T03:18:07.495Z,8.60
2018-04-26T03:20:34.323Z,8.60
2018-04-26T03:23:00.382Z,8.70
2018-04-26T03:25:26.507Z,8.50
2018-04-26T03:27:52.567Z,9.10
2018-04-26T03:30:19.470Z,8.13
2018-04-26T03:32:45.551Z,9.47
2018-04-26T03:35:12.373Z,10.00
2018-04-26T03:37:38.463Z,9.63
2018-04-26T03:40:05.311Z,9.73
2018-04-26T03:42:32.120Z,9.57
2018-04-26T03:44:58.174Z,9.23
2018-04-26T03:47:24.294Z,8.87
2018-04-26T03:49:50.361Z,10.07
2018-04-26T03:52:16.429Z,9.73
2018-04-26T03:54:42.545Z,9.80
2018-04-26T03:57:09.423Z,9.90
2018-04-26T03:59:47.794Z,10.13
2018-04-26T04:02:26.135Z,9.63
2018-04-26T04:05:04.566Z,9.33
2018-04-26T04:07:30.754Z,9.10
2018-04-26T04:09:56.830Z,8.80
2018-04-26T04:12:22.939Z,10.07
2018-04-26T04:14:49.051Z,9.53
2018-04-26T04:17:15.127Z,9.60
2018-04-26T04:19:41.232Z,10.07
2018-04-26T04:22:07.311Z,9.83
2018-04-26T04:24:33.409Z,9.67
2018-04-26T04:26:59.522Z,9.77
2018-04-26T04:29:26.398Z,9.70
2018-04-26T04:31:52.466Z,9.03
2018-04-26T04:34:18.564Z,9.30
2018-04-26T04:36:44.638Z,9.13
2018-04-26T04:39:10.734Z,8.97
2018-04-26T04:41:37.578Z,9.10
2018-04-26T04:44:03.670Z,9.17
2018-04-26T04:46:29.750Z,9.57
2018-04-26T04:48:56.601Z,9.80
2018-04-26T04:51:22.698Z,10.37
2018-04-26T04:53:48.770Z,9.97
2018-04-26T04:56:14.870Z,10.23
2018-04-26T04:58:40.939Z,10.17
2018-04-26T05:01:07.002Z,10.40
2018-04-26T05:03:33.839Z,8.80
2018-04-26T05:05:59.901Z,10.40
2018-04-26T05:08:25.979Z,9.60
2018-04-26T05:10:52.134Z,9.40
2018-04-26T05:13:18.252Z,9.83
2018-04-26T05:15:44.409Z,9.53
2018-04-26T05:18:10.533Z,9.67
2018-04-26T05:20:36.629Z,9.30
2018-04-26T05:23:02.707Z,9.10
2018-04-26T05:25:28.818Z,9.53
2018-04-26T05:27:54.898Z,9.40
2018-04-26T05:30:20.974Z,15.57
2018-04-26T05:32:47.810Z,10.37
2018-04-26T05:35:13.908Z,10.07
2018-04-26T05:37:39.986Z,10.20
2018-04-26T05:40:06.086Z,10.70
2018-04-26T05:42:32.174Z,10.67
2018-04-26T05:44:58.974Z,10.80
2018-04-26T05:47:25.144Z,11.30
2018-04-26T05:49:51.186Z,11.20
2018-04-26T05:52:17.269Z,10.40
2018-04-26T05:54:43.390Z,10.83
2018-04-26T05:57:09.452Z,10.70
2018-04-26T05:59:35.551Z,11.93
2018-04-26T06:02:02.425Z,11.10
2018-04-26T06:04:28.515Z,11.20
2018-04-26T06:06:54.602Z,11.03
2018-04-26T06:09:20.711Z,11.70
2018-04-26T06:11:47.533Z,10.60
2018-04-26T06:14:13.611Z,11.20
2018-04-26T06:16:40.487Z,11.10
2018-04-26T06:19:06.590Z,11.90
2018-04-26T06:21:32.666Z,12.73
2018-04-26T06:23:58.789Z,11.93
2018-04-26T06:26:24.884Z,10.73
2018-04-26T06:28:50.951Z,11.77
2018-04-26T06:31:17.805Z,13.03
2018-04-26T06:33:44.634Z,12.10
2018-04-26T06:36:10.746Z,11.30
2018-04-26T06:38:36.867Z,11.00
2018-04-26T06:41:02.945Z,11.70
2018-04-26T06:43:29.031Z,10.70
2018-04-26T06:45:55.166Z,11.87
2018-04-26T06:48:21.234Z,11.70
2018-04-26T06:50:47.290Z,11.57
2018-04-26T06:53:13.447Z,12.50
2018-04-26T06:55:39.517Z,11.40
2018-04-26T06:58:05.590Z,12.00
2018-04-26T07:00:31.788Z,10.73
2018-04-26T07:02:57.787Z,11.20
2018-04-26T07:05:23.869Z,11.97
2018-04-26T07:07:49.966Z,12.00
2018-04-26T07:10:16.022Z,11.97
2018-04-26T07:12:42.826Z,11.23
2018-04-26T07:15:08.941Z,14.60
2018-04-26T07:17:35.085Z,12.70
2018-04-26T07:20:01.162Z,12.50
2018-04-26T07:22:27.294Z,13.40
2018-04-26T07:24:53.395Z,13.07
2018-04-26T07:27:19.453Z,14.20
2018-04-26T07:29:45.567Z,12.70
2018-04-26T07:32:11.650Z,13.47
2018-04-26T07:34:37.742Z,14.50
2018-04-26T07:37:03.853Z,15.30
2018-04-26T07:39:30.667Z,13.80
2018-04-26T07:41:56.753Z,13.50
2018-04-26T07:44:23.608Z,13.10
2018-04-26T07:46:49.684Z,14.07
2018-04-26T07:49:15.774Z,14.03
2018-04-26T07:51:42.641Z,12.93
2018-04-26T07:54:08.694Z,14.13
2018-04-26T07:56:34.837Z,12.60
2018-04-26T07:59:00.950Z,14.20
2018-04-26T08:01:27.082Z,14.60
2018-04-26T08:03:53.893Z,13.93
2018-04-26T08:06:19.978Z,14.20
2018-04-26T08:08:46.818Z,14.43
2018-04-26T08:11:13.643Z,14.27
2018-04-26T08:13:39.761Z,14.57
2018-04-26T08:16:05.862Z,13.97
2018-04-26T08:18:32.999Z,13.47
2018-04-26T08:20:59.102Z,12.97
2018-04-26T08:23:25.255Z,14.40
2018-04-26T08:25:51.376Z,13.93
2018-04-26T08:28:17.456Z,13.73
2018-04-26T08:30:43.527Z,14.30
2018-04-26T08:33:09.711Z,14.60
2018-04-26T08:35:35.772Z,16.90
2018-04-26T08:38:01.891Z,17.60
2018-04-26T08:40:27.969Z,20.13
2018-04-26T08:42:54.813Z,18.47
2018-04-26T08:45:21.691Z,19.80
2018-04-26T08:47:47.798Z,17.73
2018-04-26T08:50:14.918Z,17.67
2018-04-26T08:52:40.987Z,19.10
2018-04-26T08:55:07.080Z,18.07
2018-04-26T08:57:33.222Z,18.13
2018-04-26T08:59:59.321Z,18.10
2018-04-26T09:02:26.199Z,15.00
2018-04-26T09:04:52.942Z,16.07
2018-04-26T09:07:19.074Z,15.97
2018-04-26T09:09:46.550Z,16.57
2018-04-26T09:12:12.661Z,15.40
2018-04-26T09:14:38.772Z,15.63
2018-04-26T09:17:04.870Z,15.10
2018-04-26T09:19:31.052Z,13.13
2018-04-26T09:21:58.135Z,13.13
2018-04-26T09:24:24.409Z,13.77
2018-04-26T09:26:52.652Z,11.60
2018-04-26T09:29:20.490Z,10.90
2018-04-26T09:31:48.983Z,11.47
2018-04-26T09:34:15.941Z,9.27
2018-04-26T09:36:42.811Z,9.03
2018-04-26T09:39:11.234Z,7.67
2018-04-26T09:41:39.449Z,7.73
2018-04-26T09:44:06.496Z,10.20
2018-04-26T09:46:33.593Z,5.40
2018-04-26T09:49:01.494Z,5.67
2018-04-26T09:51:27.607Z,5.80
2018-04-26T09:53:58.425Z,6.17
2018-04-26T09:56:24.909Z,5.37
2018-04-26T09:58:51.742Z,3.60
2018-04-26T10:01:19.858Z,4.37
2018-04-26T10:03:46.819Z,4.27
2018-04-26T10:06:30.606Z,4.13
2018-04-26T10:08:57.696Z,5.73
2018-04-26T10:11:24.684Z,5.17
2018-04-26T10:13:51.820Z,6.33
2018-04-26T10:16:18.339Z,4.10
2018-04-26T10:18:44.756Z,3.50
2018-04-26T10:21:11.705Z,4.90
2018-04-26T10:23:38.967Z,4.20
2018-04-26T10:26:06.226Z,3.37
2018-04-26T10:28:33.388Z,4.07
2018-04-26T10:31:00.520Z,2.90
2018-04-26T10:33:26.960Z,3.53
2018-04-26T10:35:57.663Z,3.77
2018-04-26T10:38:23.956Z,3.17
2018-04-26T10:40:50.613Z,2.60
2018-04-26T10:43:16.713Z,2.57
2018-04-26T10:45:42.793Z,2.83
2018-04-26T10:48:09.805Z,3.70
2018-04-26T10:50:36.812Z,2.77
2018-04-26T10:53:04.209Z,4.13
2018-04-26T10:55:30.358Z,7.93
2018-04-26T10:57:56.456Z,4.97
2018-04-26T11:00:22.540Z,3.30
2018-04-26T11:02:48.695Z,2.70
2018-04-26T11:05:14.769Z,3.70
2018-04-26T11:07:40.859Z,3.13
2018-04-26T11:10:06.988Z,2.90
2018-04-26T11:12:40.055Z,2.63
2018-04-26T11:15:07.354Z,2.43
2018-04-26T11:17:33.446Z,3.13
2018-04-26T11:20:00.515Z,2.73
2018-04-26T11:22:26.591Z,2.10
2018-04-26T11:24:52.755Z,2.57
2018-04-26T11:27:18.835Z,2.07
2018-04-26T11:29:44.923Z,2.67
2018-04-26T11:32:11.060Z,2.60
2018-04-26T11:34:37.113Z,2.30
2018-04-26T11:37:03.215Z,2.57
2018-04-26T11:39:29.348Z,1.90
2018-04-26T11:41:55.424Z,2.70
2018-04-26T11:44:23.153Z,2.30
2018-04-26T11:46:49.342Z,3.40
2018-04-26T11:49:16.066Z,2.83
2018-04-26T11:51:42.178Z,2.70
2018-04-26T11:54:08.259Z,2.33
2018-04-26T11:56:36.690Z,2.70
2018-04-26T11:59:02.882Z,2.57
2018-04-26T12:01:29.910Z,2.40
2018-04-26T12:03:56.142Z,2.97
2018-04-26T12:06:22.302Z,1.70
2018-04-26T12:08:49.713Z,3.03
2018-04-26T12:11:16.711Z,1.90
2018-04-26T12:13:42.871Z,3.33
2018-04-26T12:16:09.018Z,3.03
2018-04-26T12:18:35.677Z,2.67
2018-04-26T12:21:04.431Z,3.23
2018-04-26T12:23:30.823Z,3.20
2018-04-26T12:25:58.141Z,3.00
2018-04-26T12:28:25.058Z,2.50
2018-04-26T12:30:51.262Z,2.20
2018-04-26T12:33:18.717Z,2.10
2018-04-26T12:35:46.349Z,2.00
2018-04-26T12:38:13.333Z,3.97
2018-04-26T12:40:39.834Z,3.80
2018-04-26T12:43:06.718Z,2.80
2018-04-26T12:45:38.104Z,3.50
2018-04-26T12:48:05.096Z,2.83
2018-04-26T12:50:31.745Z,2.47
2018-04-26T12:52:59.316Z,2.10
2018-04-26T12:55:28.796Z,2.07
2018-04-26T12:57:55.896Z,2.60
2018-04-26T13:00:24.057Z,2.07
2018-04-26T13:02:50.920Z,2.50
2018-04-26T13:05:17.775Z,4.87
2018-04-26T13:07:43.873Z,3.20
2018-04-26T13:10:11.903Z,3.90
2018-04-26T13:12:39.502Z,3.43
2018-04-26T13:15:06.668Z,2.80
2018-04-26T13:17:34.506Z,2.60
2018-04-26T13:20:00.862Z,2.80
2018-04-26T13:22:27.877Z,3.43
2018-04-26T13:24:56.878Z,3.30
2018-04-26T13:27:28.108Z,3.83
2018-04-26T13:29:55.682Z,4.60
2018-04-26T13:32:21.759Z,4.90
2018-04-26T13:34:47.939Z,3.93
2018-04-26T13:37:14.048Z,4.93
2018-04-26T13:39:40.293Z,3.27
2018-04-26T13:42:09.172Z,3.57
2018-04-26T13:44:35.783Z,3.50
2018-04-26T13:47:02.890Z,3.20
2018-04-26T13:49:31.728Z,2.50
2018-04-26T13:51:57.936Z,4.10
2018-04-26T13:54:24.674Z,4.47
2018-04-26T13:56:51.598Z,2.50
2018-04-26T13:59:18.466Z,2.83
2018-04-26T14:01:44.554Z,3.10
2018-04-26T14:04:11.407Z,2.23
2018-04-26T14:06:37.526Z,2.83
2018-04-26T14:09:03.633Z,3.20
2018-04-26T14:11:29.727Z,2.60
2018-04-26T14:13:56.540Z,3.00
2018-04-26T14:16:22.768Z,3.27
2018-04-26T14:18:48.898Z,5.87
2018-04-26T14:21:14.962Z,3.20
2018-04-26T14:23:41.051Z,5.70
2018-04-26T14:26:07.164Z,4.17
2018-04-26T14:28:34.005Z,4.27
2018-04-26T14:31:00.839Z,3.70
2018-04-26T14:33:27.353Z,3.40
2018-04-26T14:35:53.495Z,3.27
2018-04-26T14:38:19.622Z,3.17
2018-04-26T14:40:45.738Z,2.87
2018-04-26T14:43:11.857Z,3.70
2018-04-26T14:45:37.948Z,4.03
2018-04-26T14:48:04.106Z,3.43
2018-04-26T14:50:30.232Z,2.67
2018-04-26T14:52:56.321Z,2.23
2018-04-26T14:55:23.210Z,3.23
2018-04-26T14:57:49.495Z,1.80
2018-04-26T15:00:15.615Z,2.30
2018-04-26T15:02:41.763Z,2.10
2018-04-26T15:05:07.841Z,2.23
2018-04-26T15:07:34.658Z,2.40
2018-04-26T15:10:00.774Z,2.20
2018-04-26T15:12:26.913Z,2.73
2018-04-26T15:14:53.053Z,3.20
2018-04-26T15:17:19.168Z,2.60
2018-04-26T15:19:45.291Z,4.00
2018-04-26T15:22:11.390Z,2.97
2018-04-26T15:24:37.510Z,4.37
2018-04-26T15:27:03.625Z,4.60
2018-04-26T15:29:29.757Z,4.40
2018-04-26T15:31:55.932Z,4.80
2018-04-26T15:34:22.046Z,4.53
2018-04-26T15:36:48.115Z,4.37
2018-04-26T15:39:14.220Z,3.77
2018-04-26T15:41:40.312Z,4.60
2018-04-26T15:44:07.152Z,5.10
2018-04-26T15:46:33.279Z,3.40
2018-04-26T15:48:59.369Z,3.80
2018-04-26T15:51:25.499Z,4.10
2018-04-26T15:54:04.116Z,5.07
2018-04-26T15:56:53.331Z,4.20
2018-04-26T15:59:31.706Z,4.30
2018-04-26T16:05:42.366Z,3.43
2018-04-26T16:08:26.952Z,5.90
2018-04-26T16:11:11.615Z,4.70
2018-04-26T16:13:56.438Z,4.30
2018-04-26T16:16:41.296Z,3.47
2018-04-26T16:19:27.775Z,4.87
2018-04-26T16:22:13.314Z,4.23
2018-04-26T16:24:53.678Z,6.30
2018-04-26T16:27:38.356Z,5.10
2018-04-26T16:30:17.005Z,3.43
2018-04-26T16:33:01.605Z,3.60
2018-04-26T16:38:43.783Z,4.00
2018-04-26T16:41:10.012Z,3.07
2018-04-26T16:43:36.100Z,3.77
2018-04-26T16:46:02.249Z,4.10
2018-04-26T16:48:28.482Z,5.90
2018-04-26T16:50:54.697Z,16.40
2018-04-26T16:53:20.803Z,10.83
2018-04-26T16:55:46.903Z,7.93
2018-04-26T16:58:13.013Z,7.37
2018-04-26T17:00:39.079Z,6.63
2018-04-26T17:03:05.187Z,8.07
2018-04-26T17:05:31.359Z,10.63
2018-04-26T17:07:57.451Z,10.47
2018-04-26T17:10:23.722Z,8.67
2018-04-26T17:12:49.823Z,11.30
2018-04-26T17:15:15.967Z,13.77
2018-04-26T17:17:42.087Z,54.60
2018-04-26T17:20:08.894Z,36.10
2018-04-26T17:22:35.015Z,35.30
2018-04-26T17:25:01.194Z,53.77
2018-04-26T17:27:28.028Z,30.73
2018-04-26T17:29:54.146Z,17.93
2018-04-26T17:32:20.255Z,36.43
2018-04-26T17:34:46.376Z,46.30
2018-04-26T17:37:13.241Z,12.83
2018-04-26T17:39:40.064Z,30.83
2018-04-26T17:42:06.213Z,42.37
2018-04-26T17:44:32.302Z,38.00
2018-04-26T17:46:58.533Z,12.20
2018-04-26T17:49:24.600Z,14.80
2018-04-26T17:51:50.691Z,7.77
2018-04-26T17:54:17.551Z,27.07
2018-04-26T17:56:44.435Z,20.97
2018-04-26T17:59:10.537Z,13.10
2018-04-26T18:01:37.381Z,18.10
2018-04-26T18:04:03.566Z,14.67
2018-04-26T18:06:29.615Z,7.63
2018-04-26T18:08:55.716Z,9.03
2018-04-26T18:11:21.812Z,8.20
2018-04-26T18:13:47.904Z,6.90
2018-04-26T18:16:14.372Z,5.57
2018-04-26T18:18:40.462Z,7.13
2018-04-26T18:21:14.169Z,5.30
2018-04-26T18:23:40.270Z,5.00
2018-04-26T18:26:06.383Z,4.50
2018-04-26T18:28:32.513Z,4.63
2018-04-26T18:30:58.619Z,5.63
2018-04-26T18:33:24.780Z,9.80
2018-04-26T18:35:50.968Z,9.23
2018-04-26T18:38:17.049Z,9.50
2018-04-26T18:40:43.934Z,10.27
2018-04-26T18:43:10.067Z,10.50
2018-04-26T18:45:36.144Z,8.10
2018-04-26T18:48:02.412Z,5.57
2018-04-26T18:50:29.354Z,7.57
2018-04-26T18:52:56.529Z,10.03
2018-04-26T18:55:23.365Z,8.23
2018-04-26T18:57:49.478Z,8.43
2018-04-26T19:00:15.598Z,13.13
2018-04-26T19:02:41.683Z,8.07
2018-04-26T19:05:07.810Z,10.00
2018-04-26T19:07:33.904Z,7.00
2018-04-26T19:10:00.047Z,9.80
2018-04-26T19:12:26.229Z,8.90
2018-04-26T19:14:52.330Z,5.50
2018-04-26T19:17:18.404Z,4.07
2018-04-26T19:19:44.598Z,4.70
2018-04-26T19:22:10.694Z,5.50
2018-04-26T19:24:36.920Z,4.10
2018-04-26T19:27:03.597Z,8.53
2018-04-26T19:29:30.836Z,5.57
2018-04-26T19:31:57.853Z,17.73
2018-04-26T19:34:24.284Z,6.00
2018-04-26T19:36:50.920Z,5.60
2018-04-26T19:39:17.543Z,11.07
2018-04-26T19:41:43.939Z,5.10
2018-04-26T19:44:10.276Z,11.63
2018-04-26T19:46:37.251Z,11.90
2018-04-26T19:49:03.523Z,31.37
2018-04-26T19:51:29.646Z,10.90
2018-04-26T19:53:55.922Z,14.97
2018-04-26T19:56:22.034Z,5.50
2018-04-26T19:58:48.311Z,13.47
2018-04-26T20:01:15.156Z,13.17
2018-04-26T20:03:41.338Z,6.47
2018-04-26T20:06:07.428Z,6.73
2018-04-26T20:08:33.594Z,7.77
2018-04-26T20:11:01.149Z,5.43
2018-04-26T20:13:27.710Z,10.23
2018-04-26T20:15:54.656Z,5.83
2018-04-26T20:18:20.940Z,11.17
2018-04-26T20:20:54.948Z,7.00
2018-04-26T20:23:21.639Z,4.43
2018-04-26T20:25:48.386Z,7.43
2018-04-26T20:28:14.589Z,6.60
2018-04-26T20:30:40.643Z,7.77
2018-04-26T20:33:06.713Z,6.60
2018-04-26T20:35:33.561Z,4.37
2018-04-26T20:37:59.647Z,5.03
2018-04-26T20:40:26.517Z,7.10
2018-04-26T20:42:52.742Z,6.10
2018-04-26T20:45:19.762Z,2.80
2018-04-26T20:47:45.951Z,7.50
2018-04-26T20:50:12.083Z,5.33
2018-04-26T20:52:39.063Z,15.07
2018-04-26T20:55:05.234Z,7.67
2018-04-26T20:57:31.456Z,6.60
2018-04-26T20:59:58.758Z,6.13
2018-04-26T21:02:24.905Z,4.87
2018-04-26T21:04:52.109Z,7.30
2018-04-26T21:07:18.263Z,6.60
2018-04-26T21:09:44.419Z,7.20
2018-04-26T21:12:10.548Z,4.83
2018-04-26T21:14:36.665Z,8.57
2018-04-26T21:17:02.767Z,6.17
2018-04-26T21:19:28.890Z,6.10
2018-04-26T21:21:55.124Z,6.97
2018-04-26T21:24:22.038Z,5.30
2018-04-26T21:26:48.141Z,5.00
2018-04-26T21:29:15.007Z,9.60
2018-04-26T21:31:41.875Z,4.87
2018-04-26T21:34:07.961Z,5.90
2018-04-26T21:36:34.026Z,6.90
2018-04-26T21:39:00.157Z,7.43
2018-04-26T21:41:27.320Z,5.20
2018-04-26T21:43:54.380Z,9.77
2018-04-26T21:46:20.578Z,7.33
2018-04-26T21:48:46.703Z,4.23
2018-04-26T21:51:19.223Z,5.17
2018-04-26T21:53:53.096Z,4.70
2018-04-26T21:56:25.332Z,4.30
2018-04-26T21:58:57.579Z,3.80
2018-04-26T22:01:29.870Z,3.90
2018-04-26T22:04:02.283Z,3.93
2018-04-26T22:06:36.826Z,3.80
2018-04-26T22:09:03.309Z,4.20
2018-04-26T22:11:30.270Z,3.33
2018-04-26T22:13:57.187Z,4.30
2018-04-26T22:16:23.250Z,4.60
2018-04-26T22:18:50.109Z,4.07
2018-04-26T22:21:16.986Z,5.30
2018-04-26T22:23:43.159Z,5.00
2018-04-26T22:26:09.266Z,3.93
2018-04-26T22:28:35.599Z,4.63
2018-04-26T22:31:01.928Z,5.23
2018-04-26T22:33:28.801Z,5.10
2018-04-26T22:35:54.872Z,6.00
2018-04-26T22:38:21.226Z,5.40
2018-04-26T22:40:47.639Z,4.60
2018-04-26T22:43:13.859Z,5.17
2018-04-26T22:45:40.786Z,5.13
2018-04-26T22:48:07.463Z,5.33
2018-04-26T22:50:34.268Z,5.27
2018-04-26T22:53:00.430Z,6.47
2018-04-26T22:55:26.527Z,5.40
2018-04-26T22:57:52.714Z,5.40
2018-04-26T23:00:19.573Z,4.40
2018-04-26T23:02:46.426Z,4.43
2018-04-26T23:05:12.704Z,4.60
2018-04-26T23:07:38.910Z,4.40
2018-04-26T23:10:08.275Z,4.60
2018-04-26T23:12:34.350Z,4.07
2018-04-26T23:15:00.441Z,4.50
2018-04-26T23:17:27.178Z,4.40
2018-04-26T23:19:54.683Z,4.37
2018-04-26T23:22:20.818Z,5.00
2018-04-26T23:24:48.408Z,4.27
2018-04-26T23:27:14.584Z,4.50
2018-04-26T23:29:42.710Z,4.40
2018-04-26T23:32:09.059Z,5.37
2018-04-26T23:34:35.762Z,5.03
2018-04-26T23:37:01.953Z,6.07
2018-04-26T23:39:28.375Z,4.90
2018-04-26T23:41:54.496Z,5.03
2018-04-26T23:44:20.783Z,4.43
2018-04-26T23:46:46.842Z,4.97
2018-04-26T23:49:13.148Z,4.73
2018-04-26T23:51:39.253Z,5.20
2018-04-26T23:54:05.539Z,5.30
2018-04-26T23:56:31.594Z,4.73
2018-04-26T23:58:57.685Z,5.80
